createdAt,value
2023-12-20T00:01:39.535Z,1.17
2023-12-20T00:04:08.491Z,1.15
2023-12-20T00:06:36.345Z,1.45
2023-12-20T00:09:04.018Z,1.88
2023-12-20T00:11:31.693Z,1.50
2023-12-20T00:14:00.790Z,1.50
2023-12-20T00:16:28.460Z,1.35
2023-12-20T00:18:56.174Z,1.50
2023-12-20T00:21:23.895Z,1.40
2023-12-20T00:23:51.533Z,1.95
2023-12-20T00:26:18.345Z,1.40
2023-12-20T00:28:45.964Z,1.10
2023-12-20T00:31:15.753Z,1.20
2023-12-20T00:33:45.400Z,1.05
2023-12-20T00:36:13.307Z,0.98
2023-12-20T00:38:40.953Z,1.23
2023-12-20T00:41:08.573Z,1.13
2023-12-20T00:43:36.383Z,1.20
2023-12-20T00:46:04.325Z,0.90
2023-12-20T00:48:33.393Z,1.10
2023-12-20T00:51:01.073Z,0.90
2023-12-20T00:53:28.779Z,1.10
2023-12-20T00:55:56.460Z,1.30
2023-12-20T00:58:24.308Z,1.00
2023-12-20T01:00:52.379Z,1.45
2023-12-20T01:03:19.106Z,1.00
2023-12-20T01:05:48.309Z,0.98
2023-12-20T01:08:15.991Z,1.17
2023-12-20T01:10:43.656Z,0.80
2023-12-20T01:13:11.448Z,1.23
2023-12-20T01:15:39.144Z,0.98
2023-12-20T01:18:07.246Z,1.27
2023-12-20T01:20:35.027Z,1.00
2023-12-20T01:23:04.100Z,1.20
2023-12-20T01:25:31.846Z,0.95
2023-12-20T01:27:59.493Z,1.10
2023-12-20T01:30:27.379Z,1.30
2023-12-20T01:32:55.623Z,1.17
2023-12-20T01:35:23.345Z,1.10
2023-12-20T01:37:50.954Z,1.50
2023-12-20T01:40:20.086Z,1.23
2023-12-20T01:42:47.968Z,1.27
2023-12-20T01:45:15.808Z,1.33
2023-12-20T01:47:43.753Z,1.55
2023-12-20T01:50:11.682Z,1.55
2023-12-20T01:52:39.643Z,1.30
2023-12-20T01:55:14.273Z,1.10
2023-12-20T01:57:44.375Z,1.20
2023-12-20T02:00:14.230Z,1.30
2023-12-20T02:02:42.741Z,1.17
2023-12-20T02:05:10.817Z,1.45
2023-12-20T02:07:38.578Z,1.52
2023-12-20T02:10:07.869Z,1.10
2023-12-20T02:12:35.645Z,1.30
2023-12-20T02:15:05.026Z,1.00
2023-12-20T02:17:33.760Z,1.30
2023-12-20T02:20:01.663Z,1.20
2023-12-20T02:22:30.912Z,1.08
2023-12-20T02:24:58.627Z,1.48
2023-12-20T02:27:26.599Z,1.63
2023-12-20T02:29:54.296Z,1.25
2023-12-20T02:32:22.633Z,1.20
2023-12-20T02:34:50.957Z,1.63
2023-12-20T02:37:18.773Z,1.20
2023-12-20T02:39:47.948Z,1.48
2023-12-20T02:42:15.616Z,1.40
2023-12-20T02:44:43.262Z,1.40
2023-12-20T02:47:10.888Z,1.33
2023-12-20T02:49:38.619Z,1.48
2023-12-20T02:52:06.900Z,1.13
2023-12-20T02:54:34.614Z,1.85
2023-12-20T02:57:03.707Z,1.77
2023-12-20T02:59:31.497Z,1.42
2023-12-20T03:01:59.333Z,1.20
2023-12-20T03:04:27.277Z,1.40
2023-12-20T03:06:55.119Z,1.95
2023-12-20T03:09:22.803Z,1.92
2023-12-20T03:11:50.455Z,1.92
2023-12-20T03:14:19.551Z,1.50
2023-12-20T03:16:49.055Z,1.95
2023-12-20T03:19:17.434Z,1.77
2023-12-20T03:21:45.226Z,1.80
2023-12-20T03:24:12.907Z,1.52
2023-12-20T03:26:40.560Z,2.38
2023-12-20T03:29:08.172Z,1.60
2023-12-20T03:31:37.219Z,1.50
2023-12-20T03:34:04.967Z,1.70
2023-12-20T03:36:33.045Z,1.92
2023-12-20T03:39:00.711Z,1.50
2023-12-20T03:41:28.364Z,1.83
2023-12-20T03:43:56.145Z,1.90
2023-12-20T03:46:23.879Z,1.77
2023-12-20T03:48:53.053Z,1.30
2023-12-20T03:51:20.749Z,1.42
2023-12-20T03:53:48.638Z,1.30
2023-12-20T03:56:16.268Z,1.35
2023-12-20T03:58:43.911Z,1.03
2023-12-20T04:01:12.518Z,1.17
2023-12-20T04:03:41.432Z,1.40
2023-12-20T04:06:10.940Z,1.25
2023-12-20T04:08:38.589Z,1.58
2023-12-20T04:11:06.360Z,1.42
2023-12-20T04:13:34.021Z,1.65
2023-12-20T04:16:01.671Z,1.80
2023-12-20T04:18:29.808Z,1.25
2023-12-20T04:20:57.539Z,1.52
2023-12-20T04:23:26.557Z,1.80
2023-12-20T04:25:54.253Z,1.70
2023-12-20T04:28:21.974Z,1.38
2023-12-20T04:30:49.717Z,2.28
2023-12-20T04:33:17.507Z,1.55
2023-12-20T04:35:46.933Z,1.50
2023-12-20T04:38:14.589Z,1.60
2023-12-20T04:40:43.775Z,1.23
2023-12-20T04:43:11.521Z,1.52
2023-12-20T04:45:39.429Z,2.15
2023-12-20T04:48:07.719Z,1.60
2023-12-20T04:50:35.477Z,1.75
2023-12-20T04:53:03.248Z,1.80
2023-12-20T04:55:31.262Z,1.02
2023-12-20T04:58:00.349Z,1.65
2023-12-20T05:00:28.053Z,1.40
2023-12-20T05:02:55.827Z,1.25
2023-12-20T05:05:23.681Z,1.23
2023-12-20T05:07:51.562Z,1.50
2023-12-20T05:10:19.374Z,1.42
2023-12-20T05:12:47.053Z,1.60
2023-12-20T05:15:16.175Z,1.63
2023-12-20T05:17:44.190Z,2.42
2023-12-20T05:20:12.290Z,2.10
2023-12-20T05:22:40.017Z,2.20
2023-12-20T05:25:08.026Z,1.80
2023-12-20T05:27:36.386Z,1.90
2023-12-20T05:30:05.751Z,2.20
2023-12-20T05:32:35.017Z,1.55
2023-12-20T05:35:02.751Z,1.58
2023-12-20T05:37:30.479Z,1.77
2023-12-20T05:39:58.206Z,1.83
2023-12-20T05:42:25.936Z,1.40
2023-12-20T05:44:55.168Z,1.50
2023-12-20T05:47:23.856Z,1.10
2023-12-20T05:49:53.020Z,1.07
2023-12-20T05:52:20.753Z,1.40
2023-12-20T05:54:48.544Z,1.20
2023-12-20T05:57:16.300Z,1.02
2023-12-20T05:59:44.729Z,0.82
2023-12-20T06:02:12.370Z,1.00
2023-12-20T06:04:44.113Z,1.00
2023-12-20T06:07:15.081Z,0.98
2023-12-20T06:09:43.010Z,1.05
2023-12-20T06:12:11.038Z,1.50
2023-12-20T06:14:38.709Z,1.23
2023-12-20T06:17:06.370Z,1.58
2023-12-20T06:19:34.298Z,0.98
2023-12-20T06:22:02.199Z,1.40
2023-12-20T06:24:31.304Z,1.20
2023-12-20T06:26:59.145Z,1.65
2023-12-20T06:29:26.984Z,1.48
2023-12-20T06:31:54.666Z,1.70
2023-12-20T06:34:22.364Z,1.13
2023-12-20T06:36:50.134Z,1.40
2023-12-20T06:39:17.800Z,1.42
2023-12-20T06:41:46.869Z,1.92
2023-12-20T06:44:14.531Z,1.50
2023-12-20T06:46:42.246Z,1.35
2023-12-20T06:49:09.951Z,1.73
2023-12-20T06:51:37.657Z,1.55
2023-12-20T06:54:05.604Z,1.40
2023-12-20T06:56:33.235Z,1.75
2023-12-20T06:59:02.265Z,1.63
2023-12-20T07:01:30.034Z,2.00
2023-12-20T07:03:57.729Z,1.27
2023-12-20T07:06:27.069Z,1.85
2023-12-20T07:08:54.813Z,2.08
2023-12-20T07:11:22.676Z,2.08
2023-12-20T07:13:50.773Z,1.83
2023-12-20T07:16:19.916Z,1.87
2023-12-20T07:18:48.249Z,1.67
2023-12-20T07:21:16.841Z,1.30
2023-12-20T07:23:44.501Z,2.17
2023-12-20T07:26:12.666Z,1.65
2023-12-20T07:28:40.311Z,1.80
2023-12-20T07:31:08.141Z,1.73
2023-12-20T07:33:39.653Z,1.85
2023-12-20T07:36:08.204Z,1.73
2023-12-20T07:38:36.142Z,1.95
2023-12-20T07:41:03.857Z,2.13
2023-12-20T07:43:31.454Z,3.15
2023-12-20T07:45:59.123Z,1.42
2023-12-20T07:48:26.884Z,1.13
2023-12-20T07:50:55.903Z,0.90
2023-12-20T07:53:23.607Z,1.20
2023-12-20T07:55:51.269Z,0.73
2023-12-20T07:58:18.983Z,1.00
2023-12-20T08:00:46.675Z,1.00
2023-12-20T08:03:14.342Z,0.60
2023-12-20T08:05:42.323Z,0.75
2023-12-20T08:08:11.297Z,0.60
2023-12-20T08:10:39.011Z,0.80
2023-12-20T08:13:06.668Z,0.77
2023-12-20T08:15:34.319Z,1.05
2023-12-20T08:18:01.994Z,0.70
2023-12-20T08:20:36.860Z,0.80
2023-12-20T08:23:08.077Z,0.70
2023-12-20T08:25:37.150Z,1.00
2023-12-20T08:28:05.719Z,0.80
2023-12-20T08:30:33.981Z,0.65
2023-12-20T08:33:02.116Z,0.80
2023-12-20T08:35:29.754Z,0.65
2023-12-20T08:37:57.460Z,0.50
2023-12-20T08:40:25.224Z,0.70
2023-12-20T08:42:54.253Z,0.73
2023-12-20T08:45:22.081Z,0.80
2023-12-20T08:47:50.301Z,0.60
2023-12-20T08:50:18.351Z,0.60
2023-12-20T08:52:46.012Z,0.60
2023-12-20T08:55:14.141Z,0.52
2023-12-20T08:57:41.993Z,0.70
2023-12-20T09:00:11.863Z,0.75
2023-12-20T09:02:40.056Z,1.15
2023-12-20T09:05:08.237Z,0.88
2023-12-20T09:07:36.030Z,1.00
2023-12-20T09:10:03.800Z,1.05
2023-12-20T09:12:31.439Z,0.90
2023-12-20T09:14:59.273Z,0.90
2023-12-20T09:17:28.289Z,1.10
2023-12-20T09:19:56.152Z,1.10
2023-12-20T09:22:24.471Z,0.90
2023-12-20T09:24:52.214Z,1.40
2023-12-20T09:27:19.922Z,1.42
2023-12-20T09:29:49.660Z,1.02
2023-12-20T09:32:17.372Z,1.33
2023-12-20T09:34:46.627Z,1.77
2023-12-20T09:37:14.430Z,1.00
2023-12-20T09:39:42.129Z,1.25
2023-12-20T09:42:10.870Z,0.90
2023-12-20T09:44:41.992Z,1.00
2023-12-20T09:47:10.269Z,0.90
2023-12-20T09:49:39.074Z,1.10
2023-12-20T09:52:10.018Z,1.00
2023-12-20T09:54:37.656Z,0.90
2023-12-20T09:57:06.159Z,0.90
2023-12-20T09:59:34.008Z,0.80
2023-12-20T10:02:04.630Z,0.82
2023-12-20T10:04:34.300Z,1.00
2023-12-20T10:07:06.716Z,1.15
2023-12-20T10:09:36.818Z,1.70
2023-12-20T10:12:06.501Z,1.67
2023-12-20T10:14:34.787Z,1.20
2023-12-20T10:17:04.224Z,1.20
2023-12-20T10:19:31.995Z,1.70
2023-12-20T10:21:59.912Z,1.10
2023-12-20T10:24:30.422Z,1.05
2023-12-20T10:27:06.286Z,1.77
2023-12-20T10:29:36.474Z,1.00
2023-12-20T10:32:23.155Z,1.30
2023-12-20T10:34:50.983Z,1.10
2023-12-20T10:37:18.927Z,0.90
2023-12-20T10:39:50.002Z,1.10
2023-12-20T10:42:19.429Z,1.08
2023-12-20T10:44:47.218Z,1.13
2023-12-20T10:47:15.512Z,0.80
2023-12-20T10:49:44.145Z,1.15
2023-12-20T10:52:13.666Z,1.20
2023-12-20T10:54:42.315Z,1.30
2023-12-20T10:57:10.365Z,0.90
2023-12-20T10:59:40.417Z,1.20
2023-12-20T11:02:08.407Z,1.40
2023-12-20T11:04:39.229Z,1.33
2023-12-20T11:07:14.399Z,1.30
2023-12-20T11:09:46.052Z,1.63
2023-12-20T11:12:17.626Z,1.37
2023-12-20T11:14:48.481Z,1.30
2023-12-20T11:17:18.869Z,1.50
2023-12-20T11:20:02.690Z,1.60
2023-12-20T11:22:32.328Z,1.50
2023-12-20T11:25:01.278Z,1.40
2023-12-20T11:27:28.931Z,1.50
2023-12-20T11:29:58.838Z,2.25
2023-12-20T11:32:32.969Z,1.63
2023-12-20T11:35:01.832Z,1.90
2023-12-20T11:37:31.461Z,1.70
2023-12-20T11:40:02.971Z,1.73
2023-12-20T11:42:34.678Z,1.77
2023-12-20T11:45:05.714Z,2.17
2023-12-20T11:47:33.640Z,1.92
2023-12-20T11:50:04.922Z,2.10
2023-12-20T11:52:32.727Z,2.15
2023-12-20T11:55:00.544Z,2.30
2023-12-20T11:57:29.019Z,2.40
2023-12-20T11:59:57.143Z,2.22
2023-12-20T12:02:26.152Z,2.57
2023-12-20T12:04:53.901Z,2.53
2023-12-20T12:07:24.635Z,2.60
2023-12-20T12:09:52.423Z,2.35
2023-12-20T12:12:20.227Z,2.55
2023-12-20T12:14:48.069Z,3.80
2023-12-20T12:17:16.137Z,3.00
2023-12-20T12:19:45.606Z,2.50
2023-12-20T12:22:16.174Z,3.08
2023-12-20T12:24:44.550Z,3.33
2023-12-20T12:27:12.547Z,2.90
2023-12-20T12:29:40.277Z,3.35
2023-12-20T12:32:08.630Z,3.72
2023-12-20T12:34:37.022Z,2.30
2023-12-20T12:37:06.535Z,2.15
2023-12-20T12:39:34.181Z,2.63
2023-12-20T12:42:01.834Z,2.50
2023-12-20T12:44:29.505Z,2.42
2023-12-20T12:46:58.177Z,1.90
2023-12-20T12:49:26.311Z,2.20
2023-12-20T12:51:55.046Z,1.90
2023-12-20T12:54:26.643Z,1.90
2023-12-20T12:56:54.831Z,2.13
2023-12-20T12:59:22.504Z,2.22
2023-12-20T13:01:50.274Z,2.22
2023-12-20T13:04:17.983Z,2.47
2023-12-20T13:06:45.730Z,2.55
2023-12-20T13:09:13.394Z,2.53
2023-12-20T13:11:42.394Z,2.00
2023-12-20T13:14:12.188Z,2.10
2023-12-20T13:16:39.826Z,2.80
2023-12-20T13:19:07.551Z,2.78
2023-12-20T13:21:35.248Z,2.53
2023-12-20T13:24:02.907Z,3.00
2023-12-20T13:26:30.513Z,2.55
2023-12-20T13:28:59.515Z,2.60
2023-12-20T13:31:27.506Z,3.80
2023-12-20T13:33:55.301Z,2.47
2023-12-20T13:36:22.962Z,3.35
2023-12-20T13:38:51.425Z,2.63
2023-12-20T13:41:19.174Z,2.93
2023-12-20T13:43:46.785Z,2.40
2023-12-20T13:46:16.176Z,2.30
2023-12-20T13:48:43.792Z,3.42
2023-12-20T13:51:11.367Z,2.40
2023-12-20T13:53:39.533Z,2.97
2023-12-20T13:56:07.477Z,2.95
2023-12-20T13:58:37.569Z,2.33
2023-12-20T14:01:06.062Z,2.70
2023-12-20T14:03:35.111Z,2.50
2023-12-20T14:06:03.096Z,2.47
2023-12-20T14:08:30.778Z,2.60
2023-12-20T14:10:58.493Z,1.70
2023-12-20T14:13:26.484Z,1.75
2023-12-20T14:15:55.496Z,1.83
2023-12-20T14:18:23.196Z,1.77
2023-12-20T14:20:52.351Z,2.00
2023-12-20T14:23:19.974Z,1.92
2023-12-20T14:25:52.191Z,2.45
2023-12-20T14:28:21.118Z,1.88
2023-12-20T14:30:50.580Z,2.22
2023-12-20T14:33:19.005Z,2.67
2023-12-20T14:35:46.718Z,2.25
2023-12-20T14:38:16.457Z,2.10
2023-12-20T14:40:44.151Z,2.20
2023-12-20T14:43:11.745Z,2.38
2023-12-20T14:45:39.506Z,3.28
2023-12-20T14:48:07.868Z,3.08
2023-12-20T14:50:37.744Z,2.53
2023-12-20T14:53:05.592Z,3.05
2023-12-20T14:55:35.459Z,2.58
2023-12-20T14:58:03.352Z,2.58
2023-12-20T15:00:31.079Z,2.60
2023-12-20T15:02:58.748Z,2.15
2023-12-20T15:05:27.515Z,2.65
2023-12-20T15:07:55.325Z,2.85
2023-12-20T15:10:23.033Z,2.65
2023-12-20T15:12:52.088Z,2.83
2023-12-20T15:15:20.915Z,2.35
2023-12-20T15:17:49.062Z,2.70
2023-12-20T15:20:17.111Z,2.45
2023-12-20T15:22:46.891Z,2.10
2023-12-20T15:25:20.948Z,2.00
2023-12-20T15:27:50.256Z,2.10
2023-12-20T15:30:20.112Z,2.03
2023-12-20T15:32:47.891Z,2.40
2023-12-20T15:35:15.708Z,2.72
2023-12-20T15:37:43.833Z,2.45
2023-12-20T15:40:12.169Z,2.00
2023-12-20T15:42:39.950Z,2.05
2023-12-20T15:45:08.983Z,2.08
2023-12-20T15:47:38.398Z,2.33
2023-12-20T15:50:07.522Z,1.88
2023-12-20T15:52:36.051Z,2.33
2023-12-20T15:55:03.935Z,2.10
2023-12-20T15:57:42.219Z,1.85
2023-12-20T16:00:17.659Z,2.30
2023-12-20T16:02:46.729Z,2.20
2023-12-20T16:05:14.416Z,2.05
2023-12-20T16:07:42.450Z,2.92
2023-12-20T16:10:10.333Z,2.67
2023-12-20T16:12:38.015Z,2.65
2023-12-20T16:15:06.267Z,2.10
2023-12-20T16:17:34.698Z,2.60
2023-12-20T16:20:04.647Z,2.40
2023-12-20T16:22:32.433Z,2.03
2023-12-20T16:25:00.437Z,3.08
2023-12-20T16:27:28.188Z,2.80
2023-12-20T16:29:55.868Z,2.65
2023-12-20T16:32:23.468Z,2.40
2023-12-20T16:34:52.299Z,2.38
2023-12-20T16:37:21.724Z,2.70
2023-12-20T16:39:49.500Z,2.50
2023-12-20T16:42:17.234Z,3.30
2023-12-20T16:44:45.155Z,2.60
2023-12-20T16:47:12.848Z,2.22
2023-12-20T16:49:40.624Z,2.90
2023-12-20T16:52:08.481Z,2.40
2023-12-20T16:54:37.522Z,2.75
2023-12-20T16:57:05.393Z,3.03
2023-12-20T16:59:33.054Z,2.55
2023-12-20T17:02:03.082Z,2.30
2023-12-20T17:04:33.644Z,3.97
2023-12-20T17:07:01.365Z,2.58
2023-12-20T17:09:32.001Z,3.17
2023-12-20T17:12:01.171Z,2.85
2023-12-20T17:14:28.870Z,3.30
2023-12-20T17:16:56.618Z,3.30
2023-12-20T17:19:25.079Z,3.10
2023-12-20T17:21:53.175Z,2.85
2023-12-20T17:24:20.991Z,2.85
2023-12-20T17:26:48.668Z,2.35
2023-12-20T17:29:17.671Z,2.63
2023-12-20T17:31:45.364Z,2.83
2023-12-20T17:34:13.879Z,2.55
2023-12-20T17:36:42.698Z,2.50
2023-12-20T17:39:11.085Z,2.40
2023-12-20T17:41:39.123Z,2.38
2023-12-20T17:44:06.892Z,1.77
2023-12-20T17:46:35.909Z,2.03
2023-12-20T17:49:03.669Z,1.90
2023-12-20T17:51:31.413Z,2.05
2023-12-20T17:54:01.606Z,2.08
2023-12-20T17:56:29.630Z,1.65
2023-12-20T17:58:57.349Z,1.58
2023-12-20T18:01:25.191Z,1.40
2023-12-20T18:03:54.324Z,1.17
2023-12-20T18:06:22.129Z,1.20
2023-12-20T18:08:49.793Z,1.23
2023-12-20T18:11:17.541Z,1.65
2023-12-20T18:13:45.200Z,1.23
2023-12-20T18:16:12.842Z,1.30
2023-12-20T18:18:40.803Z,1.90
2023-12-20T18:21:09.881Z,1.70
2023-12-20T18:23:37.518Z,1.40
2023-12-20T18:26:05.407Z,1.45
2023-12-20T18:28:33.241Z,1.05
2023-12-20T18:31:01.090Z,1.27
2023-12-20T18:33:29.270Z,1.08
2023-12-20T18:35:56.963Z,1.10
2023-12-20T18:38:30.009Z,1.20
2023-12-20T18:40:56.928Z,1.00
2023-12-20T18:43:25.924Z,1.20
2023-12-20T18:45:53.789Z,0.95
2023-12-20T18:48:22.335Z,1.20
2023-12-20T18:50:50.230Z,0.90
2023-12-20T18:53:18.687Z,1.00
2023-12-20T18:55:47.775Z,1.17
2023-12-20T18:58:15.885Z,1.00
2023-12-20T19:00:43.630Z,1.25
2023-12-20T19:03:11.702Z,1.00
2023-12-20T19:05:39.453Z,1.30
2023-12-20T19:08:08.163Z,1.00
2023-12-20T19:10:35.844Z,1.23
2023-12-20T19:13:05.024Z,0.95
2023-12-20T19:15:32.762Z,1.08
2023-12-20T19:18:00.454Z,1.17
2023-12-20T19:20:28.535Z,0.93
2023-12-20T19:22:56.241Z,1.33
2023-12-20T19:25:24.004Z,1.20
2023-12-20T19:27:51.743Z,1.17
2023-12-20T19:30:20.884Z,1.10
2023-12-20T19:32:48.560Z,1.27
2023-12-20T19:35:16.471Z,1.00
2023-12-20T19:37:44.731Z,1.17
2023-12-20T19:40:13.335Z,1.00
2023-12-20T19:42:41.065Z,0.90
2023-12-20T19:45:11.017Z,0.80
2023-12-20T19:47:40.098Z,0.85
2023-12-20T19:50:08.385Z,1.02
2023-12-20T19:52:36.818Z,1.10
2023-12-20T19:55:04.851Z,1.10
2023-12-20T19:57:32.587Z,1.38
2023-12-20T20:00:00.353Z,1.30
2023-12-20T20:02:28.104Z,1.33
2023-12-20T20:04:57.232Z,1.27
2023-12-20T20:07:26.391Z,1.52
2023-12-20T20:09:54.112Z,1.25
2023-12-20T20:12:21.832Z,1.10
2023-12-20T20:14:49.450Z,1.30
2023-12-20T20:17:17.043Z,1.48
2023-12-20T20:19:45.213Z,1.38
2023-12-20T20:22:16.076Z,1.88
2023-12-20T20:24:44.141Z,1.90
2023-12-20T20:27:11.793Z,1.85
2023-12-20T20:29:39.427Z,2.05
2023-12-20T20:32:07.902Z,1.77
2023-12-20T20:34:35.660Z,1.88
2023-12-20T20:37:12.614Z,2.20
2023-12-20T20:39:41.717Z,2.58
2023-12-20T20:42:09.356Z,2.42
2023-12-20T20:44:37.518Z,2.42
2023-12-20T20:47:05.477Z,2.83
2023-12-20T20:49:33.283Z,2.80
2023-12-20T20:52:01.278Z,2.60
2023-12-20T20:54:29.032Z,2.00
2023-12-20T20:56:58.024Z,2.17
2023-12-20T20:59:25.661Z,2.33
2023-12-20T21:01:53.366Z,2.20
2023-12-20T21:04:21.086Z,1.80
2023-12-20T21:06:49.525Z,1.77
2023-12-20T21:09:17.176Z,1.67
2023-12-20T21:11:44.832Z,1.58
2023-12-20T21:14:13.912Z,2.00
2023-12-20T21:16:41.554Z,1.75
2023-12-20T21:19:09.264Z,1.40
2023-12-20T21:21:37.542Z,1.00
2023-12-20T21:24:05.287Z,1.17
2023-12-20T21:26:32.916Z,0.90
2023-12-20T21:29:00.570Z,0.90
2023-12-20T21:31:29.603Z,0.82
2023-12-20T21:33:58.424Z,1.00
2023-12-20T21:36:26.195Z,1.00
2023-12-20T21:38:53.857Z,0.93
2023-12-20T21:41:23.638Z,0.80
2023-12-20T21:43:52.529Z,0.80
2023-12-20T21:46:20.361Z,1.13
2023-12-20T21:48:49.444Z,0.85
2023-12-20T21:51:18.706Z,0.98
2023-12-20T21:53:46.383Z,0.68
2023-12-20T21:56:14.042Z,0.80
2023-12-20T21:58:41.650Z,0.85
2023-12-20T22:01:09.521Z,0.60
2023-12-20T22:03:40.426Z,0.80
2023-12-20T22:06:10.807Z,0.60
2023-12-20T22:08:38.455Z,0.75
2023-12-20T22:11:06.090Z,0.70
2023-12-20T22:13:34.196Z,0.80
2023-12-20T22:16:02.009Z,0.65
2023-12-20T22:18:29.932Z,0.85
2023-12-20T22:20:57.562Z,0.90
2023-12-20T22:23:26.545Z,0.60
2023-12-20T22:25:54.345Z,0.75
2023-12-20T22:28:22.051Z,0.82
2023-12-20T22:30:49.771Z,0.70
2023-12-20T22:33:19.101Z,1.00
2023-12-20T22:35:47.143Z,1.05
2023-12-20T22:38:14.843Z,0.75
2023-12-20T22:40:44.041Z,1.00
2023-12-20T22:43:11.754Z,0.63
2023-12-20T22:45:41.487Z,0.68
2023-12-20T22:48:09.457Z,0.63
2023-12-20T22:50:37.174Z,0.70
2023-12-20T22:53:04.999Z,0.80
2023-12-20T22:55:32.729Z,0.63
2023-12-20T22:58:01.787Z,0.80
2023-12-20T23:00:29.481Z,0.70
2023-12-20T23:02:57.249Z,0.63
2023-12-20T23:05:24.870Z,0.70
2023-12-20T23:07:52.824Z,0.70
2023-12-20T23:10:25.525Z,0.80
2023-12-20T23:12:53.257Z,0.90
2023-12-20T23:15:22.285Z,1.00
2023-12-20T23:17:50.256Z,0.77
2023-12-20T23:20:18.196Z,0.80
2023-12-20T23:22:45.981Z,0.68
2023-12-20T23:25:13.717Z,0.80
2023-12-20T23:27:44.026Z,0.80
2023-12-20T23:30:12.196Z,0.85
2023-12-20T23:32:41.379Z,0.85
2023-12-20T23:35:15.745Z,1.05
2023-12-20T23:37:44.848Z,0.80
2023-12-20T23:40:13.348Z,0.70
2023-12-20T23:42:41.089Z,0.90
2023-12-20T23:45:09.308Z,1.13
2023-12-20T23:47:36.947Z,0.82
2023-12-20T23:50:06.537Z,1.08
2023-12-20T23:52:34.398Z,0.90
2023-12-20T23:55:02.270Z,1.08
2023-12-20T23:57:29.993Z,0.95
2023-12-20T23:59:57.694Z,0.90
